Time;durP1;ratioP1;P1;durP2;ratioP2;P2;SDS_P1;SDS_P2;PMS_P1;PMS_P2;Temp;Humidity;BMP_temperature;BMP_pressure;BME280_temperature;BME280_humidity;BME280_pressure;Samples;Min_cycle;Max_cycle;Signal;HPM_P1;HPM_P2
2023/07/03 00:00:18;;;;;;;12.13;1.88;;;;;;;;;;5281854;28;20025;-75
2023/07/03 00:02:52;;;;;;;9.95;2.30;;;;;;;;;;5282031;28;20464;-75
2023/07/03 00:05:23;;;;;;;11.55;2.00;;;;;;;;;;5282212;28;20375;-75
2023/07/03 00:07:55;;;;;;;8.38;1.73;;;;;;;;;;5281343;28;20016;-75
2023/07/03 00:10:26;;;;;;;12.73;2.28;;;;;;;;;;5282367;28;20125;-75
2023/07/03 00:12:57;;;;;;;11.07;2.08;;;;;;;;;;5282171;28;20020;-75
2023/07/03 00:15:28;;;;;;;10.48;1.80;;;;;;;;;;5281451;28;20460;-75
2023/07/03 00:17:59;;;;;;;11.82;1.85;;;;;;;;;;5281865;28;20020;-75
2023/07/03 00:20:31;;;;;;;9.93;2.03;;;;;;;;;;5281396;28;20020;-76
2023/07/03 00:23:03;;;;;;;12.35;2.00;;;;;;;;;;5281595;28;20012;-75
2023/07/03 00:25:34;;;;;;;7.38;1.58;;;;;;;;;;5281931;28;20021;-74
2023/07/03 00:28:05;;;;;;;12.35;2.05;;;;;;;;;;5280928;28;20512;-75
2023/07/03 00:30:37;;;;;;;9.90;2.35;;;;;;;;;;5281790;28;20029;-75
2023/07/03 00:33:08;;;;;;;11.50;2.13;;;;;;;;;;5282076;28;20437;-76
2023/07/03 00:35:39;;;;;;;11.80;1.98;;;;;;;;;;5281006;28;20257;-75
2023/07/03 00:38:10;;;;;;;10.02;2.15;;;;;;;;;;5282001;28;20012;-75
2023/07/03 00:40:41;;;;;;;11.40;2.40;;;;;;;;;;5281509;28;20078;-75
2023/07/03 00:43:13;;;;;;;11.55;2.15;;;;;;;;;;5281297;28;20017;-76
2023/07/03 00:45:45;;;;;;;10.65;1.45;;;;;;;;;;5281595;28;20029;-75
2023/07/03 00:48:16;;;;;;;14.80;2.15;;;;;;;;;;5282138;28;20096;-75
2023/07/03 00:50:48;;;;;;;12.90;2.78;;;;;;;;;;5280570;28;20103;-74
2023/07/03 00:53:19;;;;;;;17.23;2.00;;;;;;;;;;5281887;28;20044;-75
2023/07/03 00:55:50;;;;;;;10.57;2.10;;;;;;;;;;5280471;28;20016;-75
2023/07/03 00:58:21;;;;;;;13.50;2.13;;;;;;;;;;5282180;28;20031;-75
2023/07/03 01:00:58;;;;;;;9.80;1.95;;;;;;;;;;5281470;28;20251;-76
2023/07/03 01:03:40;;;;;;;9.75;1.67;;;;;;;;;;5280291;28;20032;-74
2023/07/03 01:06:16;;;;;;;15.07;1.98;;;;;;;;;;5281832;28;20009;-75
2023/07/03 01:08:53;;;;;;;9.48;1.60;;;;;;;;;;5281336;28;20021;-75
2023/07/03 01:11:26;;;;;;;10.95;2.15;;;;;;;;;;5280748;28;20032;-75
2023/07/03 01:13:59;;;;;;;14.40;2.10;;;;;;;;;;5281583;28;20017;-75
2023/07/03 01:16:31;;;;;;;12.48;1.90;;;;;;;;;;5281393;28;20090;-75
2023/07/03 01:19:03;;;;;;;12.35;2.55;;;;;;;;;;5281137;28;20017;-75
2023/07/03 01:21:39;;;;;;;12.48;2.10;;;;;;;;;;5281336;28;20107;-75
2023/07/03 01:24:12;;;;;;;11.57;2.08;;;;;;;;;;5280639;28;20025;-75
2023/07/03 01:26:44;;;;;;;12.40;2.22;;;;;;;;;;5281107;28;20024;-75
2023/07/03 01:29:15;;;;;;;9.88;1.48;;;;;;;;;;5281990;28;20019;-75
2023/07/03 01:31:47;;;;;;;8.18;1.50;;;;;;;;;;5280430;28;20119;-76
2023/07/03 01:34:18;;;;;;;14.13;2.58;;;;;;;;;;5284522;28;20013;-75
2023/07/03 01:36:50;;;;;;;13.38;1.95;;;;;;;;;;5284684;28;20051;-75
2023/07/03 01:39:21;;;;;;;17.75;2.40;;;;;;;;;;5284713;28;20017;-75
2023/07/03 01:41:54;;;;;;;12.90;1.95;;;;;;;;;;5284879;28;20047;-75
2023/07/03 01:44:25;;;;;;;12.10;2.33;;;;;;;;;;5285209;28;20512;-75
2023/07/03 01:47:03;;;;;;;12.55;2.13;;;;;;;;;;5284226;28;20104;-75
2023/07/03 01:49:34;;;;;;;11.93;2.05;;;;;;;;;;5284927;28;20017;-74
2023/07/03 01:52:28;;;;;;;12.32;3.00;;;;;;;;;;5283980;28;20049;-75
2023/07/03 01:54:59;;;;;;;13.27;2.20;;;;;;;;;;5285024;28;20025;-75
2023/07/03 01:57:45;;;;;;;15.50;3.37;;;;;;;;;;5284901;28;20028;-74
2023/07/03 02:00:21;;;;;;;15.40;2.13;;;;;;;;;;5284185;28;20278;-75
2023/07/03 02:02:54;;;;;;;12.23;2.40;;;;;;;;;;5284303;28;20077;-74
2023/07/03 02:05:27;;;;;;;12.32;2.67;;;;;;;;;;5284487;28;20028;-74
2023/07/03 02:08:00;;;;;;;14.80;2.78;;;;;;;;;;5283715;28;20022;-74
2023/07/03 02:10:31;;;;;;;13.80;2.47;;;;;;;;;;5284338;28;20095;-75
2023/07/03 02:13:02;;;;;;;14.65;3.03;;;;;;;;;;5283937;28;20025;-75
2023/07/03 02:15:34;;;;;;;16.70;2.60;;;;;;;;;;5284399;28;20024;-75
2023/07/03 02:18:05;;;;;;;15.35;2.85;;;;;;;;;;5284296;28;20483;-74
2023/07/03 02:20:38;;;;;;;13.40;2.28;;;;;;;;;;5283512;28;20467;-75
2023/07/03 02:23:09;;;;;;;13.57;2.65;;;;;;;;;;5284141;28;20017;-75
2023/07/03 02:25:40;;;;;;;16.83;3.05;;;;;;;;;;5284311;28;20376;-75
2023/07/03 02:28:11;;;;;;;12.47;2.37;;;;;;;;;;5284049;28;20108;-76
2023/07/03 02:30:42;;;;;;;14.35;3.08;;;;;;;;;;5283969;28;20294;-75
2023/07/03 02:33:14;;;;;;;18.25;3.28;;;;;;;;;;5284430;28;20017;-74
2023/07/03 02:35:45;;;;;;;15.18;2.00;;;;;;;;;;5282871;28;20012;-75
2023/07/03 02:38:16;;;;;;;19.92;3.15;;;;;;;;;;5284500;28;20465;-75
2023/07/03 02:40:47;;;;;;;13.43;2.60;;;;;;;;;;5283755;28;20055;-76
2023/07/03 02:43:18;;;;;;;18.13;2.92;;;;;;;;;;5283423;28;20297;-75
2023/07/03 02:45:50;;;;;;;14.15;2.88;;;;;;;;;;5283077;28;20028;-74
2023/07/03 02:48:21;;;;;;;17.17;2.95;;;;;;;;;;5283525;28;20043;-74
2023/07/03 02:50:52;;;;;;;17.25;3.00;;;;;;;;;;5283230;28;20029;-74
2023/07/03 02:53:24;;;;;;;19.65;3.95;;;;;;;;;;5283612;28;20479;-74
2023/07/03 02:55:55;;;;;;;20.10;3.10;;;;;;;;;;5282844;28;20020;-74
2023/07/03 02:58:27;;;;;;;13.27;2.40;;;;;;;;;;5283580;28;20035;-75
2023/07/03 03:00:58;;;;;;;15.52;3.30;;;;;;;;;;5283703;28;20270;-75
2023/07/03 03:03:30;;;;;;;18.58;3.30;;;;;;;;;;5282778;28;20020;-75
2023/07/03 03:06:01;;;;;;;16.48;2.75;;;;;;;;;;5283380;28;20020;-75
2023/07/03 03:08:32;;;;;;;20.80;4.18;;;;;;;;;;5283178;28;20451;-75
2023/07/03 03:11:04;;;;;;;18.48;3.28;;;;;;;;;;5282308;28;20031;-75
2023/07/03 03:13:35;;;;;;;15.57;3.42;;;;;;;;;;5282638;28;20039;-75
2023/07/03 03:16:06;;;;;;;17.02;3.78;;;;;;;;;;5264788;28;20023;-76
2023/07/03 03:18:37;;;;;;;18.58;3.60;;;;;;;;;;5282957;28;20421;-76
2023/07/03 03:21:09;;;;;;;18.30;2.70;;;;;;;;;;5282897;28;20020;-75
2023/07/03 03:23:40;;;;;;;16.85;3.47;;;;;;;;;;5281763;28;20278;-75
2023/07/03 03:26:11;;;;;;;17.33;3.60;;;;;;;;;;5283282;28;20020;-75
2023/07/03 03:28:42;;;;;;;16.20;3.05;;;;;;;;;;5282402;28;20024;-75
2023/07/03 03:31:15;;;;;;;20.45;3.58;;;;;;;;;;5282203;28;20039;-75
2023/07/03 03:33:46;;;;;;;22.65;3.33;;;;;;;;;;5282329;28;20028;-75
2023/07/03 03:36:17;;;;;;;17.15;2.85;;;;;;;;;;5283238;28;20452;-75
2023/07/03 03:38:49;;;;;;;16.00;3.00;;;;;;;;;;5281822;28;20025;-75
2023/07/03 03:41:20;;;;;;;17.67;3.72;;;;;;;;;;5283012;28;20270;-76
2023/07/03 03:43:51;;;;;;;18.40;3.67;;;;;;;;;;5282204;28;20096;-75
2023/07/03 03:46:22;;;;;;;21.05;3.35;;;;;;;;;;5282037;28;20447;-76
2023/07/03 03:48:55;;;;;;;24.15;4.32;;;;;;;;;;5282111;28;20016;-75
2023/07/03 03:51:26;;;;;;;23.35;3.55;;;;;;;;;;5281344;28;20123;-76
2023/07/03 03:53:57;;;;;;;19.30;3.47;;;;;;;;;;5282307;28;20111;-76
2023/07/03 03:56:29;;;;;;;20.70;3.93;;;;;;;;;;5281670;28;20494;-74
2023/07/03 03:59:01;;;;;;;19.65;3.65;;;;;;;;;;5281649;28;20331;-75
2023/07/03 04:01:34;;;;;;;23.02;4.05;;;;;;;;;;5282364;28;20127;-75
2023/07/03 04:04:05;;;;;;;19.85;3.88;;;;;;;;;;5282337;28;20067;-74
2023/07/03 04:06:37;;;;;;;14.48;3.08;;;;;;;;;;5281416;28;20020;-75
2023/07/03 04:09:09;;;;;;;20.45;3.33;;;;;;;;;;5282033;28;20045;-75
2023/07/03 04:11:40;;;;;;;18.50;3.95;;;;;;;;;;5281844;28;20059;-75
2023/07/03 04:14:12;;;;;;;19.60;5.17;;;;;;;;;;5281877;28;20032;-75
2023/07/03 04:16:43;;;;;;;19.13;3.70;;;;;;;;;;5281862;28;20273;-75
2023/07/03 04:19:18;;;;;;;16.33;2.75;;;;;;;;;;5282440;28;20028;-74
2023/07/03 04:21:49;;;;;;;21.60;3.08;;;;;;;;;;5280867;28;20430;-75
2023/07/03 04:24:20;;;;;;;18.98;4.45;;;;;;;;;;5282227;28;20112;-74
2023/07/03 04:26:54;;;;;;;24.90;4.20;;;;;;;;;;5280853;28;20021;-75
2023/07/03 04:29:25;;;;;;;21.15;4.25;;;;;;;;;;5282003;28;20374;-74
2023/07/03 04:31:56;;;;;;;21.88;4.00;;;;;;;;;;5281872;28;20037;-74
2023/07/03 04:34:27;;;;;;;18.77;3.87;;;;;;;;;;5281142;28;20096;-74
2023/07/03 04:36:58;;;;;;;17.30;3.45;;;;;;;;;;5281988;28;20336;-74
2023/07/03 04:39:31;;;;;;;19.85;4.13;;;;;;;;;;5281761;28;20035;-74
2023/07/03 04:42:03;;;;;;;22.75;3.72;;;;;;;;;;5281435;28;20427;-75
2023/07/03 04:44:34;;;;;;;21.10;3.97;;;;;;;;;;5281883;28;20021;-75
2023/07/03 04:47:06;;;;;;;17.53;4.20;;;;;;;;;;5282122;28;20020;-75
2023/07/03 04:49:37;;;;;;;21.40;4.13;;;;;;;;;;5281064;28;20263;-74
2023/07/03 04:52:09;;;;;;;16.02;3.28;;;;;;;;;;5281292;28;20111;-74
2023/07/03 04:54:40;;;;;;;16.05;3.42;;;;;;;;;;5280595;28;20503;-74
2023/07/03 04:57:12;;;;;;;17.63;4.15;;;;;;;;;;5282006;28;20028;-75
2023/07/03 04:59:43;;;;;;;18.33;3.95;;;;;;;;;;5281272;28;20047;-74
2023/07/03 05:02:17;;;;;;;21.85;4.35;;;;;;;;;;5281298;28;20027;-74
2023/07/03 05:04:48;;;;;;;17.38;4.03;;;;;;;;;;5281119;28;20021;-74
2023/07/03 05:07:21;;;;;;;17.03;3.90;;;;;;;;;;5281820;28;20684;-75
2023/07/03 05:09:53;;;;;;;19.33;4.15;;;;;;;;;;5284436;28;20271;-74
2023/07/03 05:12:24;;;;;;;17.73;3.97;;;;;;;;;;5285703;28;20045;-74
2023/07/03 05:14:56;;;;;;;15.57;3.45;;;;;;;;;;5285759;28;20016;-75
2023/07/03 05:17:28;;;;;;;17.17;3.20;;;;;;;;;;5284786;28;20097;-75
2023/07/03 05:19:59;;;;;;;23.00;5.03;;;;;;;;;;5285396;28;20196;-74
2023/07/03 05:22:30;;;;;;;16.98;3.42;;;;;;;;;;5285274;28;20024;-74
2023/07/03 05:25:01;;;;;;;13.63;3.30;;;;;;;;;;5284693;28;20016;-75
2023/07/03 05:27:33;;;;;;;15.25;3.83;;;;;;;;;;5285380;28;20023;-75
2023/07/03 05:30:05;;;;;;;21.15;4.10;;;;;;;;;;5284272;28;20032;-75
2023/07/03 05:32:37;;;;;;;18.98;3.38;;;;;;;;;;5284825;28;20062;-74
2023/07/03 05:35:09;;;;;;;18.83;4.07;;;;;;;;;;5285188;28;20096;-75
2023/07/03 05:37:40;;;;;;;16.20;3.70;;;;;;;;;;5284125;28;20027;-76
2023/07/03 05:40:12;;;;;;;16.20;3.42;;;;;;;;;;5285576;28;20051;-76
2023/07/03 05:42:44;;;;;;;16.05;3.15;;;;;;;;;;5284797;28;20035;-76
2023/07/03 05:45:15;;;;;;;20.15;4.05;;;;;;;;;;5284462;28;20078;-75
2023/07/03 05:47:47;;;;;;;16.00;4.20;;;;;;;;;;5284733;28;20095;-78
2023/07/03 05:50:18;;;;;;;16.70;3.28;;;;;;;;;;5284936;28;20021;-76
2023/07/03 05:52:49;;;;;;;23.83;3.88;;;;;;;;;;5282882;28;20510;-73
2023/07/03 05:55:20;;;;;;;12.93;3.13;;;;;;;;;;5285040;28;20028;-75
2023/07/03 05:57:51;;;;;;;16.52;3.58;;;;;;;;;;5283577;28;20024;-75
2023/07/03 06:00:24;;;;;;;20.80;4.00;;;;;;;;;;5296338;28;20023;-75
2023/07/03 06:02:55;;;;;;;19.00;3.28;;;;;;;;;;5305126;28;20039;-75
2023/07/03 06:05:27;;;;;;;19.67;4.25;;;;;;;;;;5279723;28;20020;-75
2023/07/03 06:07:58;;;;;;;13.53;2.90;;;;;;;;;;5284104;28;20016;-75
2023/07/03 06:10:29;;;;;;;13.27;3.50;;;;;;;;;;5283555;28;20291;-75
2023/07/03 06:13:00;;;;;;;21.77;3.88;;;;;;;;;;5281314;28;20047;-75
2023/07/03 06:15:34;;;;;;;15.85;3.65;;;;;;;;;;5283879;28;20016;-77
2023/07/03 06:18:05;;;;;;;15.15;3.15;;;;;;;;;;5264624;28;20494;-75
2023/07/03 06:20:37;;;;;;;12.48;3.53;;;;;;;;;;5282481;28;20028;-75
2023/07/03 06:23:08;;;;;;;13.30;2.92;;;;;;;;;;5284354;28;20027;-76
2023/07/03 06:25:40;;;;;;;18.38;3.28;;;;;;;;;;5283768;28;20019;-75
2023/07/03 06:28:11;;;;;;;17.70;3.30;;;;;;;;;;5283718;28;20486;-76
2023/07/03 06:30:47;;;;;;;11.85;2.70;;;;;;;;;;5283602;28;20043;-75
2023/07/03 06:33:18;;;;;;;17.05;3.47;;;;;;;;;;5283471;28;20371;-75
2023/07/03 06:35:50;;;;;;;17.77;3.38;;;;;;;;;;5283827;28;20029;-76
2023/07/03 06:38:21;;;;;;;17.80;3.60;;;;;;;;;;5284003;28;20471;-75
2023/07/03 06:40:56;;;;;;;14.35;3.03;;;;;;;;;;5282843;28;20027;-75
2023/07/03 06:43:27;;;;;;;15.43;3.40;;;;;;;;;;5283717;28;20016;-76
2023/07/03 06:45:58;;;;;;;15.55;2.95;;;;;;;;;;5284052;28;20530;-75
2023/07/03 06:48:30;;;;;;;13.15;2.78;;;;;;;;;;5282626;28;20017;-76
2023/07/03 06:51:05;;;;;;;17.95;3.05;;;;;;;;;;5283638;28;20452;-76
2023/07/03 06:53:36;;;;;;;18.88;3.40;;;;;;;;;;5283226;28;20044;-77
2023/07/03 06:56:08;;;;;;;15.02;3.08;;;;;;;;;;5282802;28;20024;-77
2023/07/03 06:58:39;;;;;;;14.30;3.55;;;;;;;;;;5283335;28;20040;-76
2023/07/03 07:01:12;;;;;;;15.03;2.90;;;;;;;;;;5283719;28;20471;-76
2023/07/03 07:03:43;;;;;;;14.82;2.78;;;;;;;;;;5282987;28;20267;-75
2023/07/03 07:06:16;;;;;;;11.38;2.38;;;;;;;;;;5283568;28;20035;-75
2023/07/03 07:08:47;;;;;;;13.80;2.55;;;;;;;;;;5282134;28;20027;-76
2023/07/03 07:11:21;;;;;;;18.00;3.38;;;;;;;;;;5283698;28;20024;-76
2023/07/03 07:13:53;;;;;;;12.18;2.80;;;;;;;;;;5282924;28;20028;-76
2023/07/03 07:16:35;;;;;;;13.88;2.78;;;;;;;;;;5282443;28;20555;-75
2023/07/03 07:19:08;;;;;;;17.75;3.40;;;;;;;;;;5283321;28;20442;-76
2023/07/03 07:21:41;;;;;;;16.63;3.20;;;;;;;;;;5283148;28;20020;-76
2023/07/03 07:24:14;;;;;;;15.27;2.38;;;;;;;;;;5282480;28;20035;-77
2023/07/03 07:26:46;;;;;;;19.13;3.95;;;;;;;;;;5282659;28;20091;-76
2023/07/03 07:29:17;;;;;;;17.35;3.60;;;;;;;;;;5288169;28;20020;-76
2023/07/03 07:31:48;;;;;;;12.38;2.72;;;;;;;;;;5302316;28;20031;-76
2023/07/03 07:34:20;;;;;;;13.73;2.53;;;;;;;;;;5303969;28;20008;-74
2023/07/03 07:36:51;;;;;;;11.10;2.88;;;;;;;;;;5302574;28;20052;-74
2023/07/03 07:39:24;;;;;;;12.57;3.15;;;;;;;;;;5303655;28;20024;-74
2023/07/03 07:41:56;;;;;;;18.75;2.95;;;;;;;;;;5303358;28;20091;-76
2023/07/03 07:44:27;;;;;;;19.17;3.72;;;;;;;;;;5302685;28;20027;-76
2023/07/03 07:46:59;;;;;;;13.35;2.30;;;;;;;;;;5303571;28;20024;-75
2023/07/03 07:49:30;;;;;;;13.18;3.00;;;;;;;;;;5303508;28;20020;-76
2023/07/03 07:52:01;;;;;;;12.13;2.83;;;;;;;;;;5301855;28;20048;-76
2023/07/03 07:54:32;;;;;;;19.00;2.30;;;;;;;;;;5301998;28;20278;-76
2023/07/03 07:57:04;;;;;;;12.30;2.28;;;;;;;;;;5303720;28;20028;-75
2023/07/03 07:59:35;;;;;;;12.57;2.25;;;;;;;;;;5301195;28;20013;-74
2023/07/03 08:02:06;;;;;;;12.43;2.08;;;;;;;;;;5302414;28;20012;-75
2023/07/03 08:04:38;;;;;;;9.90;1.60;;;;;;;;;;5302414;28;20087;-74
2023/07/03 08:07:09;;;;;;;10.25;1.50;;;;;;;;;;5303080;28;20092;-76
2023/07/03 08:09:40;;;;;;;9.93;2.30;;;;;;;;;;5303071;28;20435;-77
2023/07/03 08:12:11;;;;;;;10.35;2.00;;;;;;;;;;5302711;28;20032;-74
2023/07/03 08:14:42;;;;;;;14.05;2.60;;;;;;;;;;5302999;28;20012;-73
2023/07/03 08:17:14;;;;;;;9.70;1.70;;;;;;;;;;5303424;28;20027;-73
2023/07/03 08:19:45;;;;;;;11.67;1.83;;;;;;;;;;5302107;28;20020;-71
2023/07/03 08:22:16;;;;;;;11.97;1.67;;;;;;;;;;5303536;28;20270;-73
2023/07/03 08:24:47;;;;;;;17.70;2.77;;;;;;;;;;5302579;28;20301;-72
2023/07/03 08:27:19;;;;;;;11.63;1.50;;;;;;;;;;5302452;28;20770;-72
2023/07/03 08:29:50;;;;;;;11.18;1.90;;;;;;;;;;5296833;28;20019;-72
2023/07/03 08:32:21;;;;;;;8.30;1.95;;;;;;;;;;5282108;28;20585;-72
2023/07/03 08:34:53;;;;;;;8.90;1.80;;;;;;;;;;5280487;28;20019;-72
2023/07/03 08:37:24;;;;;;;11.25;2.08;;;;;;;;;;5283797;28;20075;-72
2023/07/03 08:39:56;;;;;;;9.63;1.97;;;;;;;;;;5300753;28;20111;-72
2023/07/03 08:42:39;;;;;;;11.05;2.42;;;;;;;;;;5301099;28;20258;-72
2023/07/03 08:45:12;;;;;;;6.53;1.50;;;;;;;;;;5301646;28;20020;-73
2023/07/03 08:47:45;;;;;;;7.95;1.17;;;;;;;;;;5298482;28;20016;-72
2023/07/03 08:50:18;;;;;;;10.20;1.83;;;;;;;;;;5301045;28;20028;-72
2023/07/03 08:53:03;;;;;;;11.82;2.38;;;;;;;;;;5300081;28;20072;-73
2023/07/03 08:55:37;;;;;;;10.73;2.58;;;;;;;;;;5300697;28;20445;-72
2023/07/03 08:58:09;;;;;;;9.40;1.40;;;;;;;;;;5301829;28;20456;-71
2023/07/03 09:00:50;;;;;;;9.88;1.92;;;;;;;;;;5301456;28;20107;-71
2023/07/03 09:03:29;;;;;;;9.50;2.10;;;;;;;;;;5301913;28;20035;-70
2023/07/03 09:06:03;;;;;;;11.05;1.75;;;;;;;;;;5302537;28;20553;-71
2023/07/03 09:08:54;;;;;;;9.07;2.25;;;;;;;;;;5300649;28;20020;-71
2023/07/03 09:11:27;;;;;;;9.75;2.22;;;;;;;;;;5268992;28;20094;-71
2023/07/03 09:14:00;;;;;;;10.10;2.05;;;;;;;;;;5300168;28;20095;-71
2023/07/03 09:16:31;;;;;;;7.38;2.22;;;;;;;;;;5301759;28;20154;-72
2023/07/03 09:19:04;;;;;;;10.75;1.92;;;;;;;;;;5302541;28;20095;-71
2023/07/03 09:21:36;;;;;;;9.73;1.77;;;;;;;;;;5301893;28;20094;-72
2023/07/03 09:24:18;;;;;;;8.75;2.28;;;;;;;;;;5301118;28;20153;-71
2023/07/03 09:27:08;;;;;;;9.95;2.50;;;;;;;;;;5301864;28;20023;-72
2023/07/03 09:29:40;;;;;;;10.80;2.22;;;;;;;;;;5293356;28;20108;-72
2023/07/03 09:32:20;;;;;;;11.82;2.92;;;;;;;;;;5281105;28;20070;-72
2023/07/03 09:35:05;;;;;;;10.32;2.10;;;;;;;;;;5280463;28;20021;-72
2023/07/03 09:37:37;;;;;;;8.23;2.00;;;;;;;;;;5279745;28;20102;-71
2023/07/03 09:40:13;;;;;;;7.75;2.08;;;;;;;;;;5280593;28;20013;-70
2023/07/03 09:42:44;;;;;;;9.25;2.35;;;;;;;;;;5280366;28;20093;-72
2023/07/03 09:45:17;;;;;;;8.43;2.47;;;;;;;;;;5279929;28;20505;-70
2023/07/03 09:47:50;;;;;;;8.85;2.22;;;;;;;;;;5280751;28;20063;-72
2023/07/03 09:50:26;;;;;;;8.10;2.25;;;;;;;;;;5280276;28;20024;-71
2023/07/03 09:52:57;;;;;;;10.45;2.42;;;;;;;;;;5280508;28;20547;-72
2023/07/03 09:55:29;;;;;;;8.18;1.63;;;;;;;;;;5282528;28;20104;-72
2023/07/03 09:58:09;;;;;;;9.65;2.10;;;;;;;;;;5283988;28;20024;-71
2023/07/03 10:00:48;;;;;;;6.90;1.80;;;;;;;;;;5283737;28;20060;-72
2023/07/03 10:03:26;;;;;;;6.40;1.52;;;;;;;;;;5282295;28;20013;-71
2023/07/03 10:06:11;;;;;;;10.07;2.22;;;;;;;;;;5283799;28;20366;-72
2023/07/03 10:08:46;;;;;;;8.60;2.05;;;;;;;;;;5282960;28;20033;-71
2023/07/03 10:11:20;;;;;;;6.47;1.40;;;;;;;;;;5282587;28;20060;-72
2023/07/03 10:13:51;;;;;;;8.82;1.52;;;;;;;;;;5282420;28;20095;-72
2023/07/03 10:16:23;;;;;;;4.97;1.13;;;;;;;;;;5284336;28;20105;-72
2023/07/03 10:18:56;;;;;;;6.25;1.13;;;;;;;;;;5283705;28;20074;-72
2023/07/03 10:21:29;;;;;;;5.22;1.10;;;;;;;;;;5284331;28;20059;-73
2023/07/03 10:24:01;;;;;;;8.88;1.00;;;;;;;;;;5284033;28;20021;-73
2023/07/03 10:26:38;;;;;;;8.25;1.98;;;;;;;;;;5283330;28;20382;-73
2023/07/03 10:29:16;;;;;;;5.50;1.20;;;;;;;;;;5284467;28;20372;-73
2023/07/03 10:31:50;;;;;;;7.22;1.20;;;;;;;;;;5283297;28;20037;-72
2023/07/03 10:34:42;;;;;;;9.45;1.60;;;;;;;;;;5283638;28;20517;-73
2023/07/03 10:37:13;;;;;;;8.43;1.70;;;;;;;;;;5284081;28;20500;-72
2023/07/03 10:39:57;;;;;;;9.43;1.33;;;;;;;;;;5282854;28;20056;-72
2023/07/03 10:42:33;;;;;;;6.72;1.35;;;;;;;;;;5283856;28;20166;-73
2023/07/03 10:45:07;;;;;;;6.68;1.75;;;;;;;;;;5283664;28;20021;-72
2023/07/03 10:47:46;;;;;;;7.15;1.67;;;;;;;;;;5282874;28;20009;-72
2023/07/03 10:50:19;;;;;;;9.48;1.67;;;;;;;;;;5283824;28;20033;-71
2023/07/03 10:52:54;;;;;;;10.35;1.88;;;;;;;;;;5283426;28;20045;-72
2023/07/03 10:55:34;;;;;;;8.00;1.00;;;;;;;;;;5282584;28;20077;-74
2023/07/03 10:58:11;;;;;;;13.15;1.52;;;;;;;;;;5283752;28;20060;-76
2023/07/03 11:00:42;;;;;;;4.28;0.80;;;;;;;;;;5282202;28;20463;-75
2023/07/03 11:03:35;;;;;;;7.30;0.98;;;;;;;;;;5283735;28;20020;-76
2023/07/03 11:06:16;;;;;;;7.30;1.05;;;;;;;;;;5282973;28;20028;-75
2023/07/03 11:09:08;;;;;;;5.95;1.20;;;;;;;;;;5279424;28;20024;-73
2023/07/03 11:11:47;;;;;;;5.53;0.88;;;;;;;;;;5299064;28;20490;-73
2023/07/03 11:14:21;;;;;;;5.40;0.85;;;;;;;;;;5303327;28;20474;-75
2023/07/03 11:17:11;;;;;;;7.05;0.70;;;;;;;;;;5302475;28;20054;-75
2023/07/03 11:20:00;;;;;;;3.38;0.70;;;;;;;;;;5303236;28;20036;-75
2023/07/03 11:22:47;;;;;;;5.38;0.90;;;;;;;;;;5302110;28;20103;-75
2023/07/03 11:25:32;;;;;;;7.00;0.90;;;;;;;;;;5303091;28;20421;-75
2023/07/03 11:28:11;;;;;;;7.57;1.02;;;;;;;;;;5303003;28;20035;-74
2023/07/03 11:30:42;;;;;;;5.07;0.55;;;;;;;;;;5301970;28;20263;-75
2023/07/03 11:33:14;;;;;;;7.15;0.80;;;;;;;;;;5303118;28;20026;-74
2023/07/03 11:35:52;;;;;;;5.07;0.90;;;;;;;;;;5301752;28;20051;-75
2023/07/03 11:38:24;;;;;;;8.18;1.05;;;;;;;;;;5302325;28;20035;-75
2023/07/03 11:40:55;;;;;;;4.53;0.88;;;;;;;;;;5302647;28;20020;-76
2023/07/03 11:43:29;;;;;;;7.35;0.90;;;;;;;;;;5302705;28;20016;-74
2023/07/03 11:46:03;;;;;;;5.78;0.88;;;;;;;;;;5303785;28;20028;-74
2023/07/03 11:48:37;;;;;;;5.85;1.00;;;;;;;;;;5303635;28;20458;-76
2023/07/03 11:51:10;;;;;;;9.45;0.88;;;;;;;;;;5301930;28;20552;-75
2023/07/03 11:53:47;;;;;;;7.82;1.05;;;;;;;;;;5301329;28;20494;-76
2023/07/03 11:56:30;;;;;;;6.28;0.80;;;;;;;;;;5304050;28;20024;-75
2023/07/03 11:59:11;;;;;;;8.95;0.90;;;;;;;;;;5302630;28;20475;-74
2023/07/03 12:01:43;;;;;;;4.50;0.93;;;;;;;;;;5303196;28;20111;-75
2023/07/03 12:04:34;;;;;;;5.93;1.00;;;;;;;;;;5302881;28;20148;-76
2023/07/03 12:07:05;;;;;;;4.85;0.77;;;;;;;;;;5302791;28;20020;-74
2023/07/03 12:09:36;;;;;;;9.68;1.20;;;;;;;;;;5301589;28;20024;-78
2023/07/03 12:12:12;;;;;;;5.78;0.77;;;;;;;;;;5300194;28;20039;-78
2023/07/03 12:14:56;;;;;;;6.43;0.90;;;;;;;;;;5300592;28;20081;-77
2023/07/03 12:17:34;;;;;;;4.75;0.75;;;;;;;;;;5300308;28;20126;-77
2023/07/03 12:20:13;;;;;;;6.28;0.90;;;;;;;;;;5300166;28;20046;-77
2023/07/03 12:22:48;;;;;;;4.43;0.80;;;;;;;;;;5300490;28;20012;-77
2023/07/03 12:25:27;;;;;;;10.10;1.20;;;;;;;;;;5302024;28;20038;-77
2023/07/03 12:28:08;;;;;;;7.57;1.10;;;;;;;;;;5303111;28;20050;-75
2023/07/03 12:30:39;;;;;;;6.65;1.00;;;;;;;;;;5302850;28;20119;-75
2023/07/03 12:33:17;;;;;;;5.97;1.08;;;;;;;;;;5302174;28;20452;-77
2023/07/03 12:35:49;;;;;;;7.65;1.20;;;;;;;;;;5302410;28;20066;-76
2023/07/03 12:38:20;;;;;;;9.13;0.80;;;;;;;;;;5302943;28;20462;-77
2023/07/03 12:40:51;;;;;;;8.05;1.00;;;;;;;;;;5301608;28;20554;-76
2023/07/03 12:43:23;;;;;;;4.80;0.93;;;;;;;;;;5303035;28;20390;-76
2023/07/03 12:45:54;;;;;;;6.22;0.80;;;;;;;;;;5301580;28;20320;-77
2023/07/03 12:48:25;;;;;;;10.10;1.10;;;;;;;;;;5302627;28;20024;-76
2023/07/03 12:50:57;;;;;;;5.30;0.90;;;;;;;;;;5302517;28;20029;-77
2023/07/03 12:53:32;;;;;;;6.60;0.80;;;;;;;;;;5301555;28;20343;-77
2023/07/03 12:56:06;;;;;;;6.63;0.80;;;;;;;;;;5302608;28;20384;-77
2023/07/03 12:58:37;;;;;;;7.22;0.93;;;;;;;;;;5302377;28;20046;-77
2023/07/03 13:01:08;;;;;;;7.35;1.23;;;;;;;;;;5301921;28;20098;-76
2023/07/03 13:03:40;;;;;;;7.30;1.00;;;;;;;;;;5302319;28;20012;-76
2023/07/03 13:06:15;;;;;;;7.65;1.45;;;;;;;;;;5302863;28;20043;-76
2023/07/03 13:08:47;;;;;;;9.10;0.90;;;;;;;;;;5301305;28;20107;-76
2023/07/03 13:11:31;;;;;;;8.60;1.05;;;;;;;;;;5302867;28;20448;-78
2023/07/03 13:14:09;;;;;;;4.28;1.00;;;;;;;;;;5301725;28;20035;-79
2023/07/03 13:16:42;;;;;;;6.50;0.80;;;;;;;;;;5301962;28;20020;-78
2023/07/03 13:19:23;;;;;;;5.97;1.00;;;;;;;;;;5301958;28;20016;-78
2023/07/03 13:21:54;;;;;;;9.75;0.90;;;;;;;;;;5300822;28;20020;-77
2023/07/03 13:24:27;;;;;;;9.27;1.87;;;;;;;;;;5302380;28;20076;-77
2023/07/03 13:26:58;;;;;;;8.40;0.95;;;;;;;;;;5302328;28;20266;-76
2023/07/03 13:29:30;;;;;;;6.30;1.05;;;;;;;;;;5302556;28;20043;-77
2023/07/03 13:32:11;;;;;;;8.65;1.52;;;;;;;;;;5306164;28;20028;-77
2023/07/03 13:34:53;;;;;;;6.95;1.15;;;;;;;;;;5306100;28;20020;-77
2023/07/03 13:37:26;;;;;;;5.80;1.02;;;;;;;;;;5305815;28;20050;-76
2023/07/03 13:39:58;;;;;;;10.05;1.48;;;;;;;;;;5306089;28;20016;-75
2023/07/03 13:42:29;;;;;;;7.07;1.20;;;;;;;;;;5305346;28;20097;-77
2023/07/03 13:45:00;;;;;;;7.45;1.20;;;;;;;;;;5305541;28;20327;-77
2023/07/03 13:47:32;;;;;;;8.27;1.15;;;;;;;;;;5306340;28;20012;-76
2023/07/03 13:50:03;;;;;;;7.63;1.30;;;;;;;;;;5305183;28;20056;-76
2023/07/03 13:52:36;;;;;;;9.38;1.35;;;;;;;;;;5305708;28;20082;-76
2023/07/03 13:55:09;;;;;;;7.53;1.15;;;;;;;;;;5305984;28;20423;-76
2023/07/03 13:57:40;;;;;;;11.18;1.23;;;;;;;;;;5304975;28;20052;-75
2023/07/03 14:00:11;;;;;;;8.63;1.45;;;;;;;;;;5305951;28;20038;-76
2023/07/03 14:02:43;;;;;;;5.97;0.98;;;;;;;;;;5305281;28;20047;-76
2023/07/03 14:05:15;;;;;;;7.90;0.95;;;;;;;;;;5305001;28;20020;-76
2023/07/03 14:07:46;;;;;;;6.38;1.00;;;;;;;;;;5305380;28;20489;-76
2023/07/03 14:10:18;;;;;;;12.30;1.10;;;;;;;;;;5305142;28;20028;-76
2023/07/03 14:12:49;;;;;;;7.07;0.93;;;;;;;;;;5305099;28;20085;-76
2023/07/03 14:15:24;;;;;;;7.30;0.80;;;;;;;;;;5305529;28;20026;-76
2023/07/03 14:17:55;;;;;;;6.43;1.05;;;;;;;;;;5304545;28;20266;-76
2023/07/03 14:20:26;;;;;;;8.38;1.13;;;;;;;;;;5305374;28;20020;-78
2023/07/03 14:22:58;;;;;;;4.87;1.00;;;;;;;;;;5305399;28;20020;-74
2023/07/03 14:25:29;;;;;;;6.47;0.67;;;;;;;;;;5304609;28;20345;-74
2023/07/03 14:28:00;;;;;;;6.50;1.03;;;;;;;;;;5305233;28;20262;-77
2023/07/03 14:30:31;;;;;;;7.87;1.37;;;;;;;;;;5305137;28;20281;-77
2023/07/03 14:33:02;;;;;;;5.07;0.70;;;;;;;;;;5304268;28;20274;-77
2023/07/03 14:35:34;;;;;;;7.10;1.00;;;;;;;;;;5305218;28;20642;-77
2023/07/03 14:38:05;;;;;;;7.13;1.35;;;;;;;;;;5304950;28;20065;-77
2023/07/03 14:40:37;;;;;;;10.65;1.30;;;;;;;;;;5303516;28;20528;-77
2023/07/03 14:43:09;;;;;;;6.55;1.08;;;;;;;;;;5305209;28;20092;-76
2023/07/03 14:45:40;;;;;;;7.63;0.88;;;;;;;;;;5304156;28;20476;-77
2023/07/03 14:48:11;;;;;;;6.22;1.13;;;;;;;;;;5305171;28;20076;-77
2023/07/03 14:50:42;;;;;;;8.07;2.03;;;;;;;;;;5304518;28;20028;-77
2023/07/03 14:53:14;;;;;;;6.57;0.75;;;;;;;;;;5304067;28;20047;-77
2023/07/03 14:55:52;;;;;;;4.60;1.02;;;;;;;;;;5304479;28;20459;-77
2023/07/03 14:58:23;;;;;;;7.55;1.13;;;;;;;;;;5304782;28;20035;-73
2023/07/03 15:00:58;;;;;;;9.38;0.90;;;;;;;;;;5303804;28;20467;-74
2023/07/03 15:03:30;;;;;;;7.63;1.20;;;;;;;;;;5304115;28;20072;-73
2023/07/03 15:06:10;;;;;;;8.45;1.25;;;;;;;;;;5304706;28;20016;-73
2023/07/03 15:08:41;;;;;;;6.75;1.02;;;;;;;;;;5303300;28;20016;-73
2023/07/03 15:11:13;;;;;;;6.78;1.05;;;;;;;;;;5304673;28;20024;-74